Terminal Aerodrome Forecast
Issued by NWS

Current Version | Previous Version | Text Only | Print | Product List | Glossary On
Versions: 1 2 3 4 5 6 7 8 9 10 11 12 13
000
FTUS46 KLOX 270500
TAFOXR
TAF
KOXR 270537Z 2706/2806 05007KT P6SM SKC
     FM270900 05015KT P6SM SKC
     FM271600 05020G30KT P6SM SKC
     FM272100 08012KT P6SM SKC
     FM280000 33008KT P6SM SKC
     FM280300 VRB03KT P6SM SKC=

USA.gov is the U.S. government's official web portal to all federal, state and local government web resources and services.